Time;durP1;ratioP1;P1;durP2;ratioP2;P2;SDS_P1;SDS_P2;PMS_P1;PMS_P2;Temp;Humidity;BMP_temperature;BMP_pressure;BME280_temperature;BME280_humidity;BME280_pressure;Samples;Min_cycle;Max_cycle;Signal;HPM_P1;HPM_P2
2021/09/08 00:01:31;;;;;;;12.30;9.43;;;;;;;;;;5013688;28;20519;-60
2021/09/08 00:03:58;;;;;;;10.70;9.30;;;;;;;;;;5013386;28;20846;-59
2021/09/08 00:06:26;;;;;;;13.37;10.07;;;;;;;;;;5013308;28;20978;-59
2021/09/08 00:08:54;;;;;;;13.70;9.83;;;;;;;;;;5013605;28;20485;-59
2021/09/08 00:11:21;;;;;;;16.93;10.10;;;;;;;;;;5013307;28;20950;-59
2021/09/08 00:13:48;;;;;;;13.83;9.50;;;;;;;;;;5014274;28;20532;-59
2021/09/08 00:16:16;;;;;;;11.30;10.10;;;;;;;;;;5013451;28;20533;-60
2021/09/08 00:18:45;;;;;;;11.00;9.90;;;;;;;;;;5013262;28;20503;-59
2021/09/08 00:21:12;;;;;;;16.00;9.30;;;;;;;;;;5013556;28;20442;-59
2021/09/08 00:23:39;;;;;;;12.43;9.37;;;;;;;;;;5014266;28;20500;-59
2021/09/08 00:26:06;;;;;;;12.57;10.30;;;;;;;;;;5017117;28;20469;-59
2021/09/08 00:28:34;;;;;;;12.10;10.90;;;;;;;;;;5017257;28;20938;-59
2021/09/08 00:31:01;;;;;;;13.30;9.70;;;;;;;;;;5017276;28;20499;-59
2021/09/08 00:33:28;;;;;;;14.63;9.50;;;;;;;;;;5017312;28;20481;-59
2021/09/08 00:35:57;;;;;;;13.40;10.50;;;;;;;;;;5017284;28;20532;-59
2021/09/08 00:38:24;;;;;;;14.40;9.87;;;;;;;;;;5017258;28;20813;-59
2021/09/08 00:40:55;;;;;;;16.23;10.27;;;;;;;;;;5017164;28;20946;-59
2021/09/08 00:43:22;;;;;;;11.97;10.20;;;;;;;;;;5017497;28;20442;-59
2021/09/08 00:45:51;;;;;;;14.23;10.50;;;;;;;;;;5017021;28;20473;-58
2021/09/08 00:48:19;;;;;;;13.17;10.60;;;;;;;;;;5017772;28;20446;-59
2021/09/08 00:50:46;;;;;;;15.83;11.00;;;;;;;;;;5017749;28;20507;-59
2021/09/08 00:53:16;;;;;;;13.23;10.70;;;;;;;;;;5017759;28;20478;-59
2021/09/08 00:55:45;;;;;;;14.00;10.30;;;;;;;;;;5017214;28;20552;-59
2021/09/08 00:58:12;;;;;;;14.43;10.70;;;;;;;;;;5017708;28;20476;-59
2021/09/08 01:00:39;;;;;;;11.73;10.07;;;;;;;;;;5017340;28;20450;-59
2021/09/08 01:03:07;;;;;;;14.80;10.50;;;;;;;;;;5017096;28;20594;-59
2021/09/08 01:05:34;;;;;;;11.07;9.97;;;;;;;;;;5017314;28;20473;-59
2021/09/08 01:08:02;;;;;;;12.40;10.70;;;;;;;;;;5016853;28;20798;-59
2021/09/08 01:10:30;;;;;;;12.03;10.83;;;;;;;;;;5016726;28;20969;-59
2021/09/08 01:12:58;;;;;;;14.60;11.17;;;;;;;;;;5017299;28;20445;-59
2021/09/08 01:15:25;;;;;;;11.93;10.20;;;;;;;;;;5017248;28;20524;-60
2021/09/08 01:17:52;;;;;;;13.17;10.50;;;;;;;;;;5016691;28;20946;-60
2021/09/08 01:20:20;;;;;;;12.40;10.20;;;;;;;;;;5016797;28;20508;-58
2021/09/08 01:22:50;;;;;;;15.10;9.97;;;;;;;;;;5017262;28;20476;-59
2021/09/08 01:25:19;;;;;;;13.20;11.80;;;;;;;;;;5016454;28;20974;-58
2021/09/08 01:27:46;;;;;;;15.13;11.30;;;;;;;;;;5016635;28;20507;-59
2021/09/08 01:30:16;;;;;;;14.33;10.90;;;;;;;;;;5016671;28;20450;-59
2021/09/08 01:32:43;;;;;;;12.43;11.23;;;;;;;;;;5016777;28;20441;-58
2021/09/08 01:35:10;;;;;;;16.57;11.73;;;;;;;;;;5015519;28;20516;-59
2021/09/08 01:37:38;;;;;;;11.60;10.40;;;;;;;;;;5016579;28;20497;-58
2021/09/08 01:40:07;;;;;;;12.17;10.33;;;;;;;;;;5017085;28;20446;-59
2021/09/08 01:42:35;;;;;;;13.27;11.87;;;;;;;;;;5016301;28;21000;-59
2021/09/08 01:45:02;;;;;;;13.80;11.73;;;;;;;;;;5016141;28;20925;-59
2021/09/08 01:47:29;;;;;;;13.63;11.73;;;;;;;;;;5016249;28;20785;-59
2021/09/08 01:49:57;;;;;;;12.50;10.70;;;;;;;;;;5015659;28;20504;-59
2021/09/08 01:52:24;;;;;;;12.70;10.83;;;;;;;;;;5016014;28;20572;-59
2021/09/08 01:54:51;;;;;;;12.57;10.33;;;;;;;;;;5015844;28;20477;-59
2021/09/08 01:57:20;;;;;;;15.47;10.20;;;;;;;;;;5016022;28;20862;-60
2021/09/08 01:59:47;;;;;;;14.90;11.47;;;;;;;;;;5015735;28;20446;-59
2021/09/08 02:02:14;;;;;;;11.87;10.63;;;;;;;;;;5015566;28;20449;-59
2021/09/08 02:04:42;;;;;;;13.70;11.80;;;;;;;;;;5015836;28;20450;-59
2021/09/08 02:07:09;;;;;;;15.37;12.90;;;;;;;;;;5015831;28;20528;-59
2021/09/08 02:09:36;;;;;;;13.07;11.47;;;;;;;;;;5015667;28;20454;-59
2021/09/08 02:12:03;;;;;;;14.83;11.20;;;;;;;;;;5015730;28;20500;-59
2021/09/08 02:14:32;;;;;;;17.90;11.67;;;;;;;;;;5015295;28;20536;-58
2021/09/08 02:16:59;;;;;;;15.60;11.70;;;;;;;;;;5015291;28;20819;-57
2021/09/08 02:19:27;;;;;;;16.37;11.90;;;;;;;;;;5015545;28;20446;-57
2021/09/08 02:21:54;;;;;;;12.67;11.10;;;;;;;;;;5015081;28;20516;-58
2021/09/08 02:24:21;;;;;;;14.87;11.70;;;;;;;;;;5015418;28;20449;-57
2021/09/08 02:26:48;;;;;;;14.90;12.20;;;;;;;;;;5015399;28;20539;-57
2021/09/08 02:29:16;;;;;;;15.23;12.00;;;;;;;;;;5015003;28;20500;-58
2021/09/08 02:31:44;;;;;;;13.87;11.47;;;;;;;;;;5015242;28;20557;-58
2021/09/08 02:34:11;;;;;;;14.10;12.50;;;;;;;;;;5014811;28;20997;-58
2021/09/08 02:36:39;;;;;;;15.70;10.87;;;;;;;;;;5040855;22;20563;-58
2021/09/08 02:39:06;;;;;;;15.43;13.57;;;;;;;;;;5035089;28;20844;-58
2021/09/08 02:41:34;;;;;;;17.63;11.50;;;;;;;;;;5034964;28;20808;-59
2021/09/08 02:44:02;;;;;;;16.23;12.13;;;;;;;;;;5034441;28;20503;-57
2021/09/08 02:46:29;;;;;;;14.90;12.67;;;;;;;;;;5034278;28;20472;-58
2021/09/08 02:48:57;;;;;;;14.53;12.00;;;;;;;;;;5033704;28;20933;-58
2021/09/08 02:51:25;;;;;;;14.40;11.57;;;;;;;;;;5034664;28;20500;-58
2021/09/08 02:53:52;;;;;;;16.03;12.30;;;;;;;;;;5034023;28;20511;-57
2021/09/08 02:56:19;;;;;;;19.80;11.50;;;;;;;;;;5034376;28;20811;-58
2021/09/08 02:58:46;;;;;;;15.77;12.97;;;;;;;;;;5034138;28;20503;-58
2021/09/08 03:01:14;;;;;;;17.57;11.70;;;;;;;;;;5034343;28;20449;-59
2021/09/08 03:03:41;;;;;;;15.00;12.03;;;;;;;;;;5034305;28;20449;-58
2021/09/08 03:06:10;;;;;;;16.50;12.33;;;;;;;;;;5034326;28;20856;-58
2021/09/08 03:08:37;;;;;;;13.80;12.00;;;;;;;;;;5033882;28;20944;-58
2021/09/08 03:11:04;;;;;;;15.70;12.90;;;;;;;;;;5033938;28;20444;-58
2021/09/08 03:13:32;;;;;;;17.47;12.33;;;;;;;;;;5033827;28;21006;-58
2021/09/08 03:15:59;;;;;;;14.70;12.40;;;;;;;;;;5034621;28;20468;-57
2021/09/08 03:18:26;;;;;;;16.27;13.23;;;;;;;;;;5034656;28;20514;-58
2021/09/08 03:20:53;;;;;;;15.13;12.70;;;;;;;;;;5034068;28;20565;-58
2021/09/08 03:23:22;;;;;;;14.40;12.67;;;;;;;;;;5033691;28;20445;-59
2021/09/08 03:25:49;;;;;;;18.33;13.50;;;;;;;;;;5033849;28;20469;-59
2021/09/08 03:28:16;;;;;;;15.40;13.60;;;;;;;;;;5033573;28;20453;-59
2021/09/08 03:30:44;;;;;;;14.83;13.20;;;;;;;;;;5033717;28;20475;-59
2021/09/08 03:33:11;;;;;;;15.63;12.47;;;;;;;;;;5033883;28;20449;-58
2021/09/08 03:35:38;;;;;;;15.17;13.20;;;;;;;;;;5033241;28;20891;-58
2021/09/08 03:38:05;;;;;;;14.47;12.63;;;;;;;;;;5033786;28;20487;-58
2021/09/08 03:40:34;;;;;;;15.60;13.00;;;;;;;;;;5033488;28;20851;-58
2021/09/08 03:43:01;;;;;;;15.47;13.80;;;;;;;;;;5033671;28;20510;-58
2021/09/08 03:45:28;;;;;;;16.47;12.63;;;;;;;;;;5033265;28;20450;-58
2021/09/08 03:47:56;;;;;;;13.97;12.10;;;;;;;;;;5033626;28;20628;-58
2021/09/08 03:50:23;;;;;;;15.37;12.10;;;;;;;;;;5033363;28;20449;-58
2021/09/08 03:52:50;;;;;;;14.60;12.17;;;;;;;;;;5033256;28;20998;-58
2021/09/08 03:55:18;;;;;;;15.83;12.73;;;;;;;;;;5033369;28;20516;-58
2021/09/08 03:57:46;;;;;;;21.50;13.30;;;;;;;;;;5033821;28;20863;-58
2021/09/08 04:00:14;;;;;;;20.17;13.57;;;;;;;;;;5033513;28;20566;-57
2021/09/08 04:02:41;;;;;;;15.30;12.60;;;;;;;;;;5033565;28;20445;-58
2021/09/08 04:08:35;;;;;;;18.70;13.47;;;;;;;;;;5091543;27;20972;-57
2021/09/08 04:11:02;;;;;;;21.63;14.67;;;;;;;;;;5090901;28;20450;-59
2021/09/08 04:13:29;;;;;;;19.03;14.00;;;;;;;;;;5090932;28;20484;-59
2021/09/08 04:15:57;;;;;;;15.23;12.67;;;;;;;;;;5090802;28;20508;-59
2021/09/08 04:18:24;;;;;;;17.87;14.50;;;;;;;;;;5090530;28;20432;-59
2021/09/08 04:20:51;;;;;;;16.20;14.27;;;;;;;;;;5090851;28;20867;-59
2021/09/08 04:23:18;;;;;;;16.33;14.33;;;;;;;;;;5090440;28;20500;-59
2021/09/08 04:25:47;;;;;;;17.80;14.13;;;;;;;;;;5090665;28;20519;-59
2021/09/08 04:28:14;;;;;;;18.90;14.37;;;;;;;;;;5090422;28;20531;-57
2021/09/08 04:30:41;;;;;;;16.83;13.73;;;;;;;;;;5090638;28;20435;-57
2021/09/08 04:33:09;;;;;;;16.20;13.53;;;;;;;;;;5090632;28;20442;-58
2021/09/08 04:35:36;;;;;;;16.27;13.70;;;;;;;;;;5090471;28;20470;-57
2021/09/08 04:38:03;;;;;;;19.30;15.07;;;;;;;;;;5090528;28;20521;-58
2021/09/08 04:40:31;;;;;;;15.93;13.60;;;;;;;;;;5090634;28;20450;-58
2021/09/08 04:43:01;;;;;;;18.77;14.10;;;;;;;;;;5090739;28;20491;-58
2021/09/08 04:45:29;;;;;;;22.00;13.30;;;;;;;;;;5090016;28;20964;-58
2021/09/08 04:47:56;;;;;;;24.40;14.40;;;;;;;;;;5090423;28;20524;-58
2021/09/08 04:50:23;;;;;;;14.97;13.20;;;;;;;;;;5090394;28;20447;-57
2021/09/08 04:52:50;;;;;;;18.53;14.13;;;;;;;;;;5090013;28;20564;-57
2021/09/08 04:55:18;;;;;;;19.20;16.33;;;;;;;;;;5090009;28;20516;-58
2021/09/08 04:57:45;;;;;;;18.30;13.03;;;;;;;;;;5089770;28;20988;-58
2021/09/08 05:00:14;;;;;;;15.50;13.37;;;;;;;;;;5089919;28;20792;-58
2021/09/08 05:02:41;;;;;;;16.53;13.13;;;;;;;;;;5089639;28;20450;-58
2021/09/08 05:05:09;;;;;;;15.67;12.47;;;;;;;;;;5090016;28;20443;-58
2021/09/08 05:07:36;;;;;;;17.60;14.17;;;;;;;;;;5089094;28;21115;-58
2021/09/08 05:10:04;;;;;;;18.47;15.03;;;;;;;;;;5090496;28;20500;-58
2021/09/08 05:12:31;;;;;;;17.97;13.57;;;;;;;;;;5089894;28;20495;-58
2021/09/08 05:14:58;;;;;;;21.13;13.87;;;;;;;;;;5089919;28;20504;-57
2021/09/08 05:17:27;;;;;;;16.30;12.90;;;;;;;;;;5089195;28;21039;-58
2021/09/08 05:19:54;;;;;;;16.37;12.60;;;;;;;;;;5075820;28;21001;-58
2021/09/08 05:22:21;;;;;;;25.40;13.67;;;;;;;;;;5076203;28;20496;-58
2021/09/08 05:24:49;;;;;;;14.17;12.20;;;;;;;;;;5076571;28;20850;-59
2021/09/08 05:27:16;;;;;;;16.90;13.10;;;;;;;;;;5075615;28;20483;-59
2021/09/08 05:29:43;;;;;;;19.00;13.47;;;;;;;;;;5075615;28;20838;-59
2021/09/08 05:32:10;;;;;;;17.10;13.30;;;;;;;;;;5075865;28;20435;-57
2021/09/08 05:34:39;;;;;;;17.50;13.73;;;;;;;;;;5076159;28;20459;-59
2021/09/08 05:37:06;;;;;;;16.73;12.90;;;;;;;;;;5078092;28;20470;-58
2021/09/08 05:39:34;;;;;;;18.20;13.90;;;;;;;;;;5075961;28;20472;-59
2021/09/08 05:42:01;;;;;;;16.47;13.17;;;;;;;;;;5075947;28;20447;-58
2021/09/08 05:44:28;;;;;;;15.27;13.63;;;;;;;;;;5075522;28;20501;-58
2021/09/08 05:46:55;;;;;;;16.80;14.17;;;;;;;;;;5075451;28;20489;-58
2021/09/08 05:49:23;;;;;;;17.63;12.47;;;;;;;;;;5076027;28;20439;-58
2021/09/08 05:51:51;;;;;;;14.93;13.27;;;;;;;;;;5075550;28;20443;-58
2021/09/08 05:54:18;;;;;;;18.37;13.70;;;;;;;;;;5075232;28;20569;-58
2021/09/08 05:56:46;;;;;;;18.23;13.80;;;;;;;;;;5075316;28;20513;-58
2021/09/08 05:59:13;;;;;;;19.63;13.87;;;;;;;;;;5075005;28;20742;-57
2021/09/08 06:01:40;;;;;;;16.10;11.73;;;;;;;;;;5075143;28;20447;-57
2021/09/08 06:04:08;;;;;;;20.03;13.33;;;;;;;;;;5075219;28;20862;-57
2021/09/08 06:06:35;;;;;;;14.90;11.50;;;;;;;;;;5074651;28;20486;-58
2021/09/08 06:09:03;;;;;;;17.33;12.90;;;;;;;;;;5074802;28;20483;-58
2021/09/08 06:11:31;;;;;;;15.30;12.67;;;;;;;;;;5074772;28;20493;-58
2021/09/08 06:13:58;;;;;;;16.13;13.47;;;;;;;;;;5075011;28;20443;-58
2021/09/08 06:16:25;;;;;;;16.47;12.73;;;;;;;;;;5074989;28;20848;-57
2021/09/08 06:18:53;;;;;;;17.30;12.37;;;;;;;;;;5074408;28;20524;-59
2021/09/08 06:21:21;;;;;;;15.90;13.03;;;;;;;;;;5074460;28;20923;-58
2021/09/08 06:23:48;;;;;;;16.67;12.53;;;;;;;;;;5075051;28;20443;-57
2021/09/08 06:26:17;;;;;;;15.57;12.50;;;;;;;;;;5075141;28;20903;-55
2021/09/08 06:28:44;;;;;;;16.60;12.70;;;;;;;;;;5074812;28;20475;-57
2021/09/08 06:31:11;;;;;;;16.27;12.47;;;;;;;;;;5073272;28;20931;-57
2021/09/08 06:33:39;;;;;;;15.77;12.60;;;;;;;;;;5074698;28;20447;-57
2021/09/08 06:36:07;;;;;;;15.37;12.27;;;;;;;;;;5074850;28;20562;-57
2021/09/08 06:38:34;;;;;;;14.93;12.30;;;;;;;;;;5074431;28;20520;-57
2021/09/08 06:41:02;;;;;;;13.77;12.33;;;;;;;;;;5074052;28;21012;-57
2021/09/08 06:43:31;;;;;;;14.47;11.37;;;;;;;;;;5073924;28;20457;-57
2021/09/08 06:45:58;;;;;;;13.90;12.07;;;;;;;;;;5074320;28;20471;-57
2021/09/08 06:48:25;;;;;;;13.60;11.03;;;;;;;;;;5073822;28;20474;-57
2021/09/08 06:50:53;;;;;;;13.00;11.60;;;;;;;;;;5074368;28;20517;-56
2021/09/08 06:53:20;;;;;;;13.73;11.87;;;;;;;;;;5073915;28;20447;-58
2021/09/08 06:55:47;;;;;;;14.67;11.40;;;;;;;;;;5073882;28;20471;-59
2021/09/08 06:58:14;;;;;;;13.13;11.73;;;;;;;;;;5073594;28;20492;-57
2021/09/08 07:00:43;;;;;;;15.93;12.00;;;;;;;;;;5073699;28;20435;-57
2021/09/08 07:03:10;;;;;;;13.03;11.37;;;;;;;;;;5073460;28;20456;-56
2021/09/08 07:05:37;;;;;;;13.80;11.30;;;;;;;;;;5074100;28;20518;-57
2021/09/08 07:08:09;;;;;;;12.53;10.50;;;;;;;;;;5073835;28;20479;-57
2021/09/08 07:10:36;;;;;;;13.13;11.27;;;;;;;;;;5074253;28;20463;-58
2021/09/08 07:13:04;;;;;;;14.30;10.97;;;;;;;;;;5073751;28;20534;-58
2021/09/08 07:15:31;;;;;;;14.07;12.23;;;;;;;;;;5074314;28;20466;-57
2021/09/08 07:18:00;;;;;;;16.97;12.40;;;;;;;;;;5074168;28;20451;-57
2021/09/08 07:20:27;;;;;;;13.17;10.60;;;;;;;;;;5074013;28;20489;-58
2021/09/08 07:22:54;;;;;;;15.87;11.27;;;;;;;;;;5073700;28;20478;-57
2021/09/08 07:25:23;;;;;;;10.67;9.50;;;;;;;;;;5073460;28;20447;-58
2021/09/08 07:27:50;;;;;;;13.80;11.17;;;;;;;;;;5073151;28;20489;-55
2021/09/08 07:30:17;;;;;;;11.60;9.60;;;;;;;;;;5072929;28;20459;-57
2021/09/08 07:32:45;;;;;;;10.93;9.50;;;;;;;;;;5073374;28;20435;-57
2021/09/08 07:35:13;;;;;;;13.23;9.53;;;;;;;;;;5073135;28;20931;-57
2021/09/08 07:37:40;;;;;;;15.90;9.60;;;;;;;;;;5073052;28;20459;-57
2021/09/08 07:40:09;;;;;;;12.50;8.70;;;;;;;;;;5073391;28;20443;-57
2021/09/08 07:42:36;;;;;;;10.43;9.07;;;;;;;;;;5072975;28;20504;-58
2021/09/08 07:45:03;;;;;;;13.00;10.43;;;;;;;;;;5073157;28;20439;-58
2021/09/08 07:47:31;;;;;;;15.33;10.60;;;;;;;;;;5072376;28;20524;-57
2021/09/08 07:49:58;;;;;;;14.07;10.93;;;;;;;;;;5072880;28;20447;-57
2021/09/08 07:52:27;;;;;;;11.37;9.53;;;;;;;;;;5073107;28;20448;-56
2021/09/08 07:54:54;;;;;;;11.57;9.47;;;;;;;;;;5072731;28;20488;-57
2021/09/08 07:57:21;;;;;;;10.83;9.40;;;;;;;;;;5072733;28;20475;-57
2021/09/08 07:59:49;;;;;;;16.13;10.40;;;;;;;;;;5072532;28;20947;-57
2021/09/08 08:02:16;;;;;;;10.53;9.10;;;;;;;;;;5072960;28;20448;-57
2021/09/08 08:04:43;;;;;;;10.53;8.93;;;;;;;;;;5072808;28;20447;-57
2021/09/08 08:07:10;;;;;;;11.10;9.33;;;;;;;;;;5072475;28;20527;-57
2021/09/08 08:09:41;;;;;;;15.50;9.70;;;;;;;;;;5073006;28;20480;-57
2021/09/08 08:12:09;;;;;;;11.67;8.93;;;;;;;;;;5072822;28;20438;-58
2021/09/08 08:14:36;;;;;;;11.80;9.40;;;;;;;;;;5072569;28;20986;-57
2021/09/08 08:17:04;;;;;;;18.23;9.20;;;;;;;;;;5072551;28;20462;-57
2021/09/08 08:19:31;;;;;;;11.30;9.67;;;;;;;;;;5072857;28;20518;-57
2021/09/08 08:21:58;;;;;;;13.20;10.10;;;;;;;;;;5072947;28;20505;-57
2021/09/08 08:24:26;;;;;;;10.93;9.47;;;;;;;;;;5073209;28;20633;-56
2021/09/08 08:26:54;;;;;;;11.47;9.90;;;;;;;;;;5072715;28;20459;-57
2021/09/08 08:29:21;;;;;;;16.90;10.20;;;;;;;;;;5072342;28;20923;-56
2021/09/08 08:31:49;;;;;;;13.53;10.07;;;;;;;;;;5072298;28;20460;-57
2021/09/08 08:34:16;;;;;;;10.97;9.30;;;;;;;;;;5072525;28;20495;-57
2021/09/08 08:36:43;;;;;;;11.80;10.37;;;;;;;;;;5079139;22;20493;-62
2021/09/08 08:39:10;;;;;;;16.23;10.57;;;;;;;;;;5033144;28;20487;-63
2021/09/08 08:41:38;;;;;;;12.50;10.63;;;;;;;;;;5032955;28;20444;-63
2021/09/08 08:44:08;;;;;;;14.13;9.90;;;;;;;;;;5033242;28;20862;-60
2021/09/08 08:46:35;;;;;;;24.07;10.60;;;;;;;;;;5035234;28;20515;-62
2021/09/08 08:49:03;;;;;;;49.57;13.00;;;;;;;;;;5048891;28;20511;-63
2021/09/08 08:51:31;;;;;;;17.53;11.00;;;;;;;;;;5045563;28;20507;-62
2021/09/08 08:53:58;;;;;;;13.80;10.50;;;;;;;;;;5036941;28;20499;-62
2021/09/08 08:56:25;;;;;;;15.97;10.30;;;;;;;;;;5047626;28;20878;-62
2021/09/08 08:58:53;;;;;;;13.47;11.20;;;;;;;;;;5044117;28;20446;-65
2021/09/08 09:01:22;;;;;;;13.47;10.50;;;;;;;;;;5038596;28;20810;-63
2021/09/08 09:03:59;;;;;;;13.47;9.43;;;;;;;;;;5037190;28;20590;-62
2021/09/08 09:06:26;;;;;;;10.47;9.37;;;;;;;;;;5036298;28;20942;-62
2021/09/08 09:08:58;;;;;;;11.33;10.07;;;;;;;;;;5036144;28;20481;-61
2021/09/08 09:11:25;;;;;;;22.00;11.80;;;;;;;;;;5036885;28;20484;-61
2021/09/08 09:13:52;;;;;;;15.53;10.87;;;;;;;;;;5036287;28;20451;-63
2021/09/08 09:16:20;;;;;;;14.77;10.60;;;;;;;;;;5037532;28;20550;-61
2021/09/08 09:18:48;;;;;;;11.77;10.50;;;;;;;;;;5036517;28;20516;-62
2021/09/08 09:21:16;;;;;;;14.00;10.37;;;;;;;;;;5035784;28;20474;-63
2021/09/08 09:23:47;;;;;;;11.03;9.30;;;;;;;;;;5035596;28;20455;-63
2021/09/08 09:26:14;;;;;;;16.57;10.33;;;;;;;;;;5036473;28;20529;-62
2021/09/08 09:28:42;;;;;;;13.40;9.90;;;;;;;;;;5036335;28;20483;-63
2021/09/08 09:31:13;;;;;;;11.50;9.03;;;;;;;;;;5036166;28;20442;-63
2021/09/08 09:33:43;;;;;;;11.33;8.20;;;;;;;;;;5036130;28;20538;-63
2021/09/08 09:36:19;;;;;;;9.93;8.80;;;;;;;;;;5036171;28;20475;-62
2021/09/08 09:38:47;;;;;;;11.50;9.60;;;;;;;;;;5036236;28;20805;-62
2021/09/08 09:41:17;;;;;;;10.00;8.83;;;;;;;;;;5036107;28;20463;-63
2021/09/08 09:43:45;;;;;;;10.40;9.40;;;;;;;;;;5035875;28;20866;-62
2021/09/08 09:46:12;;;;;;;10.20;9.17;;;;;;;;;;5035388;28;20474;-62
2021/09/08 09:48:39;;;;;;;15.80;9.63;;;;;;;;;;5035258;28;20484;-62
2021/09/08 09:51:09;;;;;;;18.27;10.03;;;;;;;;;;5035648;28;20522;-62
2021/09/08 09:53:38;;;;;;;18.07;9.13;;;;;;;;;;5035621;28;20932;-62
2021/09/08 09:56:06;;;;;;;9.33;8.40;;;;;;;;;;5034940;28;20483;-60
2021/09/08 09:58:35;;;;;;;9.93;8.47;;;;;;;;;;5035426;28;20531;-62
2021/09/08 10:01:03;;;;;;;11.63;7.83;;;;;;;;;;5035091;28;20449;-62
2021/09/08 10:03:30;;;;;;;12.97;8.90;;;;;;;;;;5034874;28;20456;-62
2021/09/08 10:05:59;;;;;;;10.57;8.60;;;;;;;;;;5034620;28;20480;-60
2021/09/08 10:08:28;;;;;;;9.80;8.73;;;;;;;;;;5034665;28;20563;-64
2021/09/08 10:10:58;;;;;;;11.00;9.27;;;;;;;;;;5034766;28;20456;-63
2021/09/08 10:13:28;;;;;;;9.50;8.27;;;;;;;;;;5034660;28;20480;-61
2021/09/08 10:15:55;;;;;;;12.90;9.03;;;;;;;;;;5034834;28;20452;-62
2021/09/08 10:18:25;;;;;;;9.47;8.50;;;;;;;;;;5034919;28;20864;-63
2021/09/08 10:21:00;;;;;;;10.47;9.33;;;;;;;;;;5034636;28;20463;-63
2021/09/08 10:23:27;;;;;;;12.80;10.03;;;;;;;;;;5035399;28;20440;-63
2021/09/08 10:25:56;;;;;;;12.50;8.13;;;;;;;;;;5035070;28;20495;-63
2021/09/08 10:28:26;;;;;;;8.10;7.30;;;;;;;;;;5035192;28;20532;-62
2021/09/08 10:30:54;;;;;;;15.80;9.03;;;;;;;;;;5034940;28;20449;-60
2021/09/08 10:33:22;;;;;;;13.03;11.57;;;;;;;;;;5034996;28;20437;-63
2021/09/08 10:35:49;;;;;;;11.73;9.97;;;;;;;;;;5034408;28;20500;-63
2021/09/08 10:38:18;;;;;;;11.67;9.50;;;;;;;;;;5035189;28;20426;-63
2021/09/08 10:40:47;;;;;;;12.57;9.87;;;;;;;;;;5035276;28;20479;-63
2021/09/08 10:43:14;;;;;;;11.97;9.10;;;;;;;;;;5036623;28;20451;-62
2021/09/08 10:45:51;;;;;;;11.10;8.73;;;;;;;;;;5034776;28;20542;-62
2021/09/08 10:48:38;;;;;;;9.70;8.47;;;;;;;;;;5034059;28;20471;-62
2021/09/08 10:51:05;;;;;;;12.27;8.70;;;;;;;;;;5033811;28;20871;-63
2021/09/08 10:53:34;;;;;;;9.27;8.27;;;;;;;;;;5033600;28;21012;-62
2021/09/08 10:56:02;;;;;;;8.90;8.10;;;;;;;;;;5033445;28;20515;-63
2021/09/08 10:58:47;;;;;;;11.93;9.30;;;;;;;;;;5033511;28;20456;-61
2021/09/08 11:01:16;;;;;;;10.60;8.20;;;;;;;;;;5033637;28;20598;-61
2021/09/08 11:03:44;;;;;;;10.50;9.30;;;;;;;;;;5033682;28;20454;-63
2021/09/08 11:06:11;;;;;;;13.60;9.23;;;;;;;;;;5033432;28;20549;-62
2021/09/08 11:08:39;;;;;;;13.43;7.40;;;;;;;;;;5033753;28;20477;-62
2021/09/08 11:11:07;;;;;;;11.67;7.50;;;;;;;;;;5034162;28;20447;-61
2021/09/08 11:13:34;;;;;;;11.17;7.70;;;;;;;;;;5033910;28;20530;-63
2021/09/08 11:16:01;;;;;;;11.93;8.47;;;;;;;;;;5033139;28;20476;-61
2021/09/08 11:18:36;;;;;;;9.83;7.30;;;;;;;;;;5034233;28;20447;-61
2021/09/08 11:21:04;;;;;;;15.60;11.07;;;;;;;;;;5034601;28;20454;-63
2021/09/08 11:23:32;;;;;;;13.27;10.27;;;;;;;;;;5033675;28;20870;-63
2021/09/08 11:26:06;;;;;;;15.63;13.07;;;;;;;;;;5033322;28;20995;-63
2021/09/08 11:28:33;;;;;;;9.90;8.00;;;;;;;;;;5033439;28;20530;-62
2021/09/08 11:31:00;;;;;;;10.70;8.63;;;;;;;;;;5033283;28;20506;-63
2021/09/08 11:33:36;;;;;;;9.90;7.83;;;;;;;;;;5033253;28;20450;-61
2021/09/08 11:36:11;;;;;;;12.10;8.27;;;;;;;;;;5033436;28;20544;-62
2021/09/08 11:38:44;;;;;;;11.60;7.33;;;;;;;;;;5033178;28;20484;-63
2021/09/08 11:41:12;;;;;;;9.63;6.37;;;;;;;;;;5033436;28;20885;-61
2021/09/08 11:43:42;;;;;;;7.40;5.50;;;;;;;;;;5034915;28;20514;-63
2021/09/08 11:46:10;;;;;;;9.13;6.60;;;;;;;;;;5033518;28;20477;-62
2021/09/08 11:48:39;;;;;;;15.57;7.37;;;;;;;;;;5033233;28;20500;-61
2021/09/08 11:51:07;;;;;;;16.87;6.93;;;;;;;;;;5032948;28;20503;-62
2021/09/08 11:53:35;;;;;;;16.93;7.67;;;;;;;;;;5033602;28;20437;-63
2021/09/08 11:56:06;;;;;;;13.20;7.80;;;;;;;;;;5033285;28;20461;-62
2021/09/08 11:58:33;;;;;;;9.47;7.37;;;;;;;;;;5033178;28;20526;-63
2021/09/08 12:01:03;;;;;;;13.17;11.17;;;;;;;;;;5032971;28;20918;-61
2021/09/08 12:03:31;;;;;;;6.47;5.07;;;;;;;;;;5033220;28;20471;-63
2021/09/08 12:06:10;;;;;;;6.40;5.00;;;;;;;;;;5032965;28;21037;-62
2021/09/08 12:08:37;;;;;;;13.00;5.80;;;;;;;;;;5032981;28;20440;-63
2021/09/08 12:11:04;;;;;;;11.57;6.73;;;;;;;;;;5033212;28;20449;-63
2021/09/08 12:13:33;;;;;;;13.10;7.43;;;;;;;;;;5033194;28;20448;-60
2021/09/08 12:16:01;;;;;;;9.93;6.20;;;;;;;;;;5033160;28;20499;-62
2021/09/08 12:18:28;;;;;;;8.23;6.53;;;;;;;;;;5032884;28;20445;-62
2021/09/08 12:21:15;;;;;;;11.90;7.20;;;;;;;;;;5033171;28;20559;-62
2021/09/08 12:23:44;;;;;;;20.07;6.53;;;;;;;;;;5034357;28;20444;-62
2021/09/08 12:26:12;;;;;;;65.80;10.63;;;;;;;;;;5033722;28;20469;-62
2021/09/08 12:28:59;;;;;;;10.37;5.37;;;;;;;;;;5034393;28;20444;-61
2021/09/08 12:31:26;;;;;;;6.07;5.47;;;;;;;;;;5037586;28;20448;-62
2021/09/08 12:33:54;;;;;;;5.77;4.97;;;;;;;;;;5036997;28;20477;-63
2021/09/08 12:36:22;;;;;;;78.63;12.33;;;;;;;;;;5036425;28;20480;-63
2021/09/08 12:38:51;;;;;;;162.13;17.47;;;;;;;;;;5036466;28;20447;-63
2021/09/08 12:41:19;;;;;;;8.00;5.03;;;;;;;;;;5036669;28;20547;-61
2021/09/08 12:43:48;;;;;;;37.23;7.67;;;;;;;;;;5036663;28;20531;-62
2021/09/08 12:46:16;;;;;;;11.77;5.33;;;;;;;;;;5036740;28;20491;-63
2021/09/08 12:48:43;;;;;;;7.70;4.40;;;;;;;;;;5036833;28;20449;-62
2021/09/08 12:51:11;;;;;;;26.80;5.67;;;;;;;;;;5036461;28;20511;-63
2021/09/08 12:53:39;;;;;;;7.57;6.90;;;;;;;;;;5036745;28;20449;-63
2021/09/08 12:56:08;;;;;;;5.43;4.70;;;;;;;;;;5036863;28;20472;-63
2021/09/08 12:58:37;;;;;;;7.87;5.23;;;;;;;;;;5044345;28;20860;-62
2021/09/08 13:01:04;;;;;;;7.23;4.97;;;;;;;;;;5056931;28;20440;-62
2021/09/08 13:03:31;;;;;;;11.70;5.20;;;;;;;;;;5055274;28;20520;-63
2021/09/08 13:05:59;;;;;;;7.20;4.50;;;;;;;;;;5048808;28;20487;-63
2021/09/08 13:08:26;;;;;;;12.03;5.93;;;;;;;;;;5038591;28;20927;-62
2021/09/08 13:10:53;;;;;;;7.97;5.33;;;;;;;;;;5037295;28;20483;-62
2021/09/08 13:13:22;;;;;;;7.67;5.13;;;;;;;;;;5036555;28;20454;-63
2021/09/08 13:15:49;;;;;;;7.37;4.50;;;;;;;;;;5036074;28;20969;-63
2021/09/08 13:18:17;;;;;;;6.63;4.33;;;;;;;;;;5036053;28;20523;-63
2021/09/08 13:20:44;;;;;;;6.77;4.40;;;;;;;;;;5035820;28;20452;-63
2021/09/08 13:23:12;;;;;;;20.43;5.57;;;;;;;;;;5036026;28;20495;-62
2021/09/08 13:25:39;;;;;;;20.20;5.20;;;;;;;;;;5035643;28;20453;-64
2021/09/08 13:28:07;;;;;;;5.10;4.03;;;;;;;;;;5035954;28;20568;-62
2021/09/08 13:30:35;;;;;;;7.80;6.00;;;;;;;;;;5035889;28;20481;-61
2021/09/08 13:33:02;;;;;;;7.50;5.10;;;;;;;;;;5035954;28;20445;-63
2021/09/08 13:35:30;;;;;;;9.40;4.80;;;;;;;;;;5035561;28;20442;-62
2021/09/08 13:37:57;;;;;;;5.20;4.70;;;;;;;;;;5035500;28;20903;-61
2021/09/08 13:40:24;;;;;;;6.60;4.17;;;;;;;;;;5035040;28;20446;-63
2021/09/08 13:42:52;;;;;;;5.00;4.40;;;;;;;;;;5035206;28;20453;-63
2021/09/08 13:45:19;;;;;;;7.53;4.80;;;;;;;;;;5035384;28;20510;-63
2021/09/08 13:47:48;;;;;;;4.70;4.30;;;;;;;;;;5035084;28;20523;-62
2021/09/08 13:50:15;;;;;;;7.10;4.50;;;;;;;;;;5035463;28;20547;-63
2021/09/08 13:52:43;;;;;;;4.87;4.37;;;;;;;;;;5035027;28;20818;-63
2021/09/08 13:55:11;;;;;;;5.80;4.30;;;;;;;;;;5034886;28;21033;-63
2021/09/08 13:57:39;;;;;;;5.57;3.70;;;;;;;;;;5035207;28;20465;-62
2021/09/08 14:00:06;;;;;;;4.33;3.60;;;;;;;;;;5035857;28;20530;-60
2021/09/08 14:02:34;;;;;;;4.20;3.73;;;;;;;;;;5035813;28;20875;-62
2021/09/08 14:05:02;;;;;;;5.47;4.97;;;;;;;;;;5035064;28;20516;-62
2021/09/08 14:07:30;;;;;;;5.13;4.63;;;;;;;;;;5034900;28;20521;-62
2021/09/08 14:09:57;;;;;;;5.80;3.53;;;;;;;;;;5034561;28;20549;-62
2021/09/08 14:12:24;;;;;;;4.20;3.80;;;;;;;;;;5034942;28;20502;-63
2021/09/08 14:14:52;;;;;;;3.93;3.50;;;;;;;;;;5034923;28;20503;-62
2021/09/08 14:17:20;;;;;;;4.20;3.80;;;;;;;;;;5035118;28;20465;-62
2021/09/08 14:19:47;;;;;;;4.40;4.00;;;;;;;;;;5035467;28;20542;-63
2021/09/08 14:22:16;;;;;;;4.50;4.10;;;;;;;;;;5035150;28;20455;-63
2021/09/08 14:24:43;;;;;;;6.27;4.10;;;;;;;;;;5035000;28;20441;-63
2021/09/08 14:27:10;;;;;;;5.43;4.00;;;;;;;;;;5034550;28;20471;-61
2021/09/08 14:29:38;;;;;;;4.90;3.80;;;;;;;;;;5034435;28;20451;-63
2021/09/08 14:32:06;;;;;;;4.53;4.13;;;;;;;;;;5034211;28;20456;-64